Detall de PIREP

Printer-friendly versionPDF version

[2010/06/18 17:34:00]
Flight IATA:CT0001
Pilot Number:042
Company ICAO:CAT
Aircraft Type:F100/A
PAX:50
Departing Airport: LEPA
Destination Airport: LEGE
Alternate Airport:LFBO
Online: VATSIM
Route:GALAT N861 LATRO H110 MAMUK
Flight Level:FL220
No Slew and time accel
No pause
Crash detect
Detect pilot in Cockpit between each 30 and 45 minutes
17:34 Zero fuel Weight: 81826 Lbs, Fuel Weight: 22691 Lbs
17:34 VATSIM:LEPA 181630Z 20009KT 170V230 9999 FEW018 23/15 Q1014 NOSIG
17:34 VATSIM:LEGE 181635Z 01006KT 350V050 8000 FEW008 SCT026 BKN054 18/17 Q1014
17:35 VOICE CATALONIAN
17:41 Parking Brakes off
17:48 Take-off
17:48 Take off Weight: 104084 Lbs
17:48 Wind: 216 @ 009 Knots Heading: 237
17:48 POS N39 33 11 E002 43 24
17:48 Gear Up: 183 Knots
17:48 Flaps:1 at 183 Knots
17:49 Flaps:0 at 192 Knots
18:01 TOC
18:01 Fuel Weight: 20704 Lb
18:03 Wind:257@041 Kn
ots Heading: 333 Ground Speed: 411 Knots Altitude 22001 ft
18:14 TOD
18:14 Fuel Weight: 19384 Lb
18:18 Wind:266@024 Knots Heading: 075 Ground Speed: 368 Knots Altitude 15269 ft
18:27 Flaps:1 at 204 Knots
18:28 Flaps:2 at 184 Knots
18:30 Flaps:3 at 148 Knots
18:31 Flaps:4 at 148 Knots
18:31 Gear Down: 146 Knots
18:33 Wind:012@005 Knots Heading: 197 Ground Speed: 165 Knots Altitude 2283 ft
18:35 TouchDown:Rate -724 ft/min Speed: 153 Knots
18:35 VATSIM:LEGE 181800Z 02005KT 360V070 8000 FEW014 SCT028 BKN064 18/17 Q1014
18:35 Land
18:35 Wind:027@005 Knots
18:35 Heading: 195
18:35 Flight Duration: 00:47
18:35 Landing Weight: 100076 Lbs
18:35 POS N41 54 10 E002 45 41
18:38 Parking brakes on
18:38 Block to Block Duration: 00:57
18:38 Final Fuel: 18121 Lbls
18:38 Spent Fuel: 4570 Lbls
18:38 Flight Length: 161 NM
18:38 TOD Land Length: 90 NM

Exportar CSV

Powered by Drupal - Modified by Danger4k